Time;durP1;ratioP1;P1;durP2;ratioP2;P2;SDS_P1;SDS_P2;PMS_P1;PMS_P2;Temp;Humidity;BMP_temperature;BMP_pressure;BME280_temperature;BME280_humidity;BME280_pressure;Samples;Min_cycle;Max_cycle;Signal;HPM_P1;HPM_P2
2022/12/31 00:08:51;;;;;;;7.88;4.25;;;;;;;21.72;32.24;102275.19;21084481;28;20066;-66
2022/12/31 00:18:57;;;;;;;5.10;3.92;;;;;;;21.76;32.20;102284.72;21082823;28;20054;-66
2022/12/31 00:29:00;;;;;;;6.93;4.30;;;;;;;21.71;32.27;102255.91;21079110;28;20105;-66
2022/12/31 00:39:04;;;;;;;6.25;4.40;;;;;;;21.79;32.21;102259.13;21078031;28;20052;-67
2022/12/31 00:49:06;;;;;;;6.45;4.50;;;;;;;21.84;31.97;102263.94;21075662;28;20039;-65
2022/12/31 00:59:07;;;;;;;5.80;4.43;;;;;;;21.88;32.33;102264.28;21068267;28;20544;-66
2022/12/31 01:09:10;;;;;;;5.35;4.40;;;;;;;21.90;32.38;102253.69;21070644;28;20041;-66
2022/12/31 01:19:27;;;;;;;5.07;4.55;;;;;;;21.89;32.29;102238.09;21067563;28;20039;-66
2022/12/31 01:29:29;;;;;;;5.18;4.15;;;;;;;21.89;31.93;102246.44;21058145;28;20047;-67
2022/12/31 01:39:30;;;;;;;5.03;4.00;;;;;;;21.91;32.26;102233.13;21078119;28;20052;-67
2022/12/31 01:49:55;;;;;;;7.82;4.88;;;;;;;21.88;32.26;102230.81;21069190;28;20044;-65
2022/12/31 01:59:59;;;;;;;6.22;4.50;;;;;;;21.83;31.88;102218.50;21064849;28;20040;-67
2022/12/31 02:10:00;;;;;;;6.22;4.45;;;;;;;21.90;32.22;102217.47;21065629;28;20043;-65
2022/12/31 02:20:24;;;;;;;6.22;4.65;;;;;;;21.88;32.39;102219.69;21088931;28;20044;-65
2022/12/31 02:30:33;;;;;;;5.82;4.40;;;;;;;21.85;32.39;102206.25;21085654;28;20040;-67
2022/12/31 02:40:37;;;;;;;5.93;4.10;;;;;;;21.83;32.76;102176.69;21078769;28;20063;-66
2022/12/31 02:50:55;;;;;;;9.25;4.45;;;;;;;21.74;32.56;102158.75;21077576;28;20101;-66
2022/12/31 03:32:02;;;;;;;13.10;6.60;;;;;;;21.92;34.19;102140.03;21080583;28;20052;-67
2022/12/31 03:42:04;;;;;;;17.42;8.73;;;;;;;21.81;34.21;102131.56;21063048;28;20070;-64
2022/12/31 03:52:07;;;;;;;19.13;8.55;;;;;;;21.94;34.48;102123.88;21073568;28;20093;-65
2022/12/31 04:02:08;;;;;;;20.38;8.80;;;;;;;21.88;34.56;102108.22;21065109;28;20031;-64
2022/12/31 04:12:10;;;;;;;16.85;8.50;;;;;;;22.02;34.86;102123.44;21054915;28;20048;-66
2022/12/31 04:22:11;;;;;;;17.02;8.32;;;;;;;22.00;35.10;102117.28;21052923;28;20044;-65
2022/12/31 04:32:18;;;;;;;20.63;9.07;;;;;;;21.92;35.01;102099.06;21053383;28;20060;-66
2022/12/31 04:42:19;;;;;;;16.75;8.57;;;;;;;22.04;35.22;102098.94;21060371;28;20028;-65
2022/12/31 04:52:22;;;;;;;21.65;8.52;;;;;;;21.94;35.49;102082.09;21062942;28;20047;-66
2022/12/31 05:02:26;;;;;;;17.15;8.18;;;;;;;22.05;35.48;102092.25;21067616;28;20036;-66
2022/12/31 05:12:27;;;;;;;17.80;8.23;;;;;;;22.02;35.40;102098.34;21059489;28;20076;-65
2022/12/31 05:22:29;;;;;;;18.20;8.23;;;;;;;22.01;35.55;102096.69;21062667;28;20066;-67
2022/12/31 05:32:33;;;;;;;16.95;8.43;;;;;;;21.94;35.70;102062.56;21062690;28;20040;-66
2022/12/31 05:42:34;;;;;;;16.50;6.90;;;;;;;21.99;35.75;102059.84;21066883;28;20040;-65
2022/12/31 05:52:36;;;;;;;14.95;7.05;;;;;;;22.04;35.44;102062.72;21060782;28;20040;-65
2022/12/31 06:02:41;;;;;;;17.55;7.80;;;;;;;22.00;36.27;102059.59;21059741;28;20036;-67
2022/12/31 06:12:42;;;;;;;17.95;7.75;;;;;;;22.00;36.00;102072.69;21055574;28;20094;-65
2022/12/31 06:22:43;;;;;;;14.63;7.30;;;;;;;;;;21057854;28;20047;-63
2022/12/31 06:32:44;;;;;;;16.45;7.25;;;;;;;22.01;36.22;102079.94;21051055;28;20048;-64
2022/12/31 06:42:52;;;;;;;17.58;7.10;;;;;;;21.97;36.30;102062.06;21061403;28;20047;-63
2022/12/31 06:52:53;;;;;;;20.33;7.45;;;;;;;22.02;36.34;102070.47;21073302;28;20093;-64
2022/12/31 07:03:16;;;;;;;14.73;6.38;;;;;;;21.95;36.00;102061.50;21083291;28;20055;-64
2022/12/31 07:13:51;;;;;;;13.82;6.57;;;;;;;21.95;35.98;102062.34;21081840;28;20483;-64
2022/12/31 07:23:52;;;;;;;11.95;6.28;;;;;;;21.97;36.21;102048.97;21053175;28;20399;-64
2022/12/31 07:34:08;;;;;;;12.60;6.57;;;;;;;21.96;36.32;102054.81;21082376;28;20542;-64
2022/12/31 07:44:24;;;;;;;13.65;5.68;;;;;;;21.95;36.05;102030.84;21082911;28;20123;-64
2022/12/31 07:54:25;;;;;;;9.77;5.88;;;;;;;21.95;35.78;102003.81;21083874;28;20464;-64
2022/12/31 08:04:32;;;;;;;9.88;5.90;;;;;;;21.94;35.80;101965.88;21080041;28;20048;-65
2022/12/31 08:14:41;;;;;;;8.23;5.00;;;;;;;21.96;35.78;101960.91;21058933;28;20036;-64
2022/12/31 08:25:16;;;;;;;10.80;5.90;;;;;;;21.92;35.68;101947.75;21069271;28;20036;-65
2022/12/31 08:35:51;;;;;;;12.70;5.78;;;;;;;21.91;35.52;101929.34;21073436;28;20093;-64
2022/12/31 08:45:53;;;;;;;11.93;5.47;;;;;;;21.95;35.37;101902.66;21078440;28;20039;-64
2022/12/31 08:56:25;;;;;;;7.47;5.00;;;;;;;21.91;35.47;101901.50;21071902;28;20540;-64
2022/12/31 09:06:57;;;;;;;6.78;4.85;;;;;;;21.87;35.62;101880.81;21078630;28;20048;-64
2022/12/31 09:17:29;;;;;;;8.38;5.07;;;;;;;21.89;35.59;101840.44;21075710;28;20483;-64
2022/12/31 09:28:11;;;;;;;9.10;4.72;;;;;;;21.86;35.71;101826.22;21064789;28;20047;-64
2022/12/31 09:38:15;;;;;;;9.40;4.90;;;;;;;21.91;35.84;101809.53;21061623;28;20486;-64
2022/12/31 09:48:28;;;;;;;6.78;4.40;;;;;;;21.85;35.73;101782.72;21072832;28;20074;-64
2022/12/31 09:58:51;;;;;;;6.50;4.90;;;;;;;21.83;35.77;101800.53;21065609;28;20914;-64
2022/12/31 10:09:31;;;;;;;7.00;4.57;;;;;;;21.81;35.56;101791.63;21049927;28;20124;-64
2022/12/31 10:19:49;;;;;;;7.68;4.38;;;;;;;21.75;35.73;101798.25;21071014;28;20077;-65
2022/12/31 10:30:10;;;;;;;8.57;4.57;;;;;;;21.81;35.44;101819.50;21082834;28;20040;-63
2022/12/31 10:40:32;;;;;;;5.32;4.00;;;;;;;21.79;35.51;101818.91;21087052;28;20040;-63
2022/12/31 10:50:52;;;;;;;5.15;3.97;;;;;;;21.77;35.30;101814.72;21086846;28;20051;-64
2022/12/31 11:01:09;;;;;;;6.00;3.70;;;;;;;21.57;35.60;101774.41;21086865;28;20040;-64
2022/12/31 11:11:27;;;;;;;4.88;3.40;;;;;;;21.69;35.41;101787.34;21082210;28;20376;-64
2022/12/31 11:21:52;;;;;;;6.47;3.80;;;;;;;21.79;35.07;101802.19;21084934;28;20047;-64
2022/12/31 11:32:03;;;;;;;5.47;3.63;;;;;;;21.73;35.08;101800.47;21076322;28;20051;-64
2022/12/31 11:42:19;;;;;;;4.57;3.47;;;;;;;21.76;35.61;101805.53;21079541;28;20093;-64
2022/12/31 11:52:34;;;;;;;6.97;3.53;;;;;;;21.72;35.03;101804.38;21064469;28;20040;-64
2022/12/31 12:02:42;;;;;;;4.80;3.58;;;;;;;21.73;35.45;101783.75;21076050;28;20395;-64
2022/12/31 12:12:44;;;;;;;3.97;2.80;;;;;;;21.73;35.19;101778.19;21075481;28;20051;-64
2022/12/31 12:22:55;;;;;;;4.90;3.22;;;;;;;21.67;35.27;101756.97;21074893;28;20398;-65
2022/12/31 12:33:00;;;;;;;3.03;2.40;;;;;;;21.67;35.02;101756.97;21076556;28;20379;-64
2022/12/31 12:43:08;;;;;;;4.07;3.15;;;;;;;21.46;35.16;101727.25;21072912;28;20070;-64
2022/12/31 12:53:24;;;;;;;5.35;3.25;;;;;;;21.64;35.15;101777.00;21073427;28;20047;-64
2022/12/31 13:03:57;;;;;;;5.53;3.53;;;;;;;21.64;35.05;101739.94;21070149;28;20042;-64
2022/12/31 13:14:05;;;;;;;4.20;3.05;;;;;;;21.67;35.22;101720.75;21077877;28;20571;-64
2022/12/31 13:24:48;;;;;;;3.85;2.72;;;;;;;21.64;35.49;101738.00;21074999;28;20097;-64
2022/12/31 13:34:56;;;;;;;3.63;2.85;;;;;;;21.64;35.13;101700.94;21066198;28;20048;-65
2022/12/31 13:45:03;;;;;;;2.83;2.47;;;;;;;21.59;35.50;101681.44;21066130;28;20040;-64
2022/12/31 13:55:15;;;;;;;4.20;3.17;;;;;;;21.62;35.14;101687.28;21051143;28;20545;-64
2022/12/31 14:05:39;;;;;;;3.88;2.97;;;;;;;21.49;35.23;101654.34;21053886;28;20276;-65
2022/12/31 14:15:59;;;;;;;3.30;2.47;;;;;;;21.52;34.96;101637.06;21055849;28;20048;-65
2022/12/31 14:26:48;;;;;;;3.03;2.30;;;;;;;21.54;35.09;101630.16;21064002;28;20629;-64
2022/12/31 14:37:40;;;;;;;4.82;3.13;;;;;;;21.52;35.42;101625.94;21070080;28;20444;-64
2022/12/31 14:48:18;;;;;;;4.63;2.63;;;;;;;21.54;35.33;101640.44;21060881;28;20044;-65
2022/12/31 14:58:41;;;;;;;3.20;2.30;;;;;;;21.53;35.00;101627.63;21043593;28;20043;-65
2022/12/31 15:09:03;;;;;;;3.67;2.53;;;;;;;21.58;35.47;101633.25;21068863;28;20055;-65
2022/12/31 15:19:32;;;;;;;4.13;2.80;;;;;;;21.54;35.28;101601.47;21075703;28;20564;-65
2022/12/31 15:29:41;;;;;;;3.20;2.60;;;;;;;21.54;35.26;101570.84;21084255;28;20437;-65
2022/12/31 15:39:43;;;;;;;2.88;2.30;;;;;;;21.42;35.65;101542.34;21081960;28;20438;-65
2022/12/31 15:49:46;;;;;;;3.22;2.55;;;;;;;21.49;35.19;101517.91;21085882;28;20044;-65
2022/12/31 15:59:47;;;;;;;3.92;2.50;;;;;;;21.53;35.25;101488.38;21074613;28;20048;-66
2022/12/31 16:09:52;;;;;;;3.20;2.40;;;;;;;21.52;35.58;101461.66;21057147;28;20048;-64
2022/12/31 16:19:55;;;;;;;3.28;2.22;;;;;;;21.38;36.92;101443.78;21067772;28;20048;-65
2022/12/31 16:30:05;;;;;;;3.30;2.28;;;;;;;21.53;36.35;101435.47;21064667;28;20048;-65
2022/12/31 16:40:22;;;;;;;6.72;2.38;;;;;;;21.52;36.06;101392.03;21076668;28;20044;-65
2022/12/31 16:50:25;;;;;;;3.45;2.17;;;;;;;21.54;36.34;101390.66;21068265;28;20499;-65
2022/12/31 17:00:26;;;;;;;2.90;2.15;;;;;;;21.40;36.37;101344.97;21063193;28;20040;-65
2022/12/31 17:10:36;;;;;;;8.02;4.20;;;;;;;21.53;36.71;101338.88;21060280;28;20048;-63
2022/12/31 17:20:38;;;;;;;8.35;4.88;;;;;;;21.55;36.74;101319.91;21051874;28;20040;-64
2022/12/31 17:30:40;;;;;;;6.85;4.43;;;;;;;21.57;36.92;101314.06;21043151;28;20036;-63
2022/12/31 17:40:41;;;;;;;12.63;5.43;;;;;;;21.57;37.43;101312.13;21038650;28;20074;-62
2022/12/31 17:50:47;;;;;;;8.30;5.32;;;;;;;21.55;36.96;101280.94;21049439;28;20043;-62
2022/12/31 18:00:49;;;;;;;11.93;6.35;;;;;;;21.53;37.28;101269.25;21059666;28;20398;-64
2022/12/31 18:10:52;;;;;;;13.70;6.00;;;;;;;21.56;37.45;101282.59;21054017;28;20048;-68
2022/12/31 18:20:57;;;;;;;13.30;7.10;;;;;;;21.58;37.66;101282.34;21037949;28;20507;-63
2022/12/31 18:30:59;;;;;;;16.83;9.15;;;;;;;21.46;37.89;101229.69;21031089;28;20076;-70
2022/12/31 18:41:04;;;;;;;123.68;64.63;;;;;;;21.63;37.21;101242.53;21031201;28;20087;-68
2022/12/31 18:51:06;;;;;;;186.18;104.70;;;;;;;21.57;37.47;101211.03;21058927;28;20040;-66
2022/12/31 19:01:27;;;;;;;225.27;126.75;;;;;;;21.62;37.57;101202.66;21054590;28;20715;-65
2022/12/31 19:11:34;;;;;;;219.05;117.97;;;;;;;21.67;38.65;101174.84;21063303;28;20164;-67
2022/12/31 19:21:35;;;;;;;170.63;96.07;;;;;;;21.67;39.07;101183.19;21066782;28;20032;-68
2022/12/31 19:31:37;;;;;;;272.20;115.85;;;;;;;21.67;38.97;101172.06;21062114;28;20055;-67
2022/12/31 19:41:43;;;;;;;423.42;187.32;;;;;;;21.70;38.86;101159.50;21069771;28;20040;-67
2022/12/31 19:51:45;;;;;;;412.80;170.50;;;;;;;21.69;39.12;101147.53;21056564;28;20040;-63
2022/12/31 20:01:46;;;;;;;399.30;159.95;;;;;;;21.65;39.41;101124.13;21042242;28;20044;-62
2022/12/31 20:11:47;;;;;;;409.85;167.95;;;;;;;21.71;39.31;101114.66;21052922;28;20044;-63
2022/12/31 20:21:49;;;;;;;363.40;148.18;;;;;;;21.62;39.44;101096.00;21056196;28;20453;-62
2022/12/31 20:31:53;;;;;;;330.27;132.18;;;;;;;21.72;38.77;101124.69;21063462;28;20047;-63
2022/12/31 20:41:55;;;;;;;302.60;124.78;;;;;;;21.74;39.08;101110.47;21042158;27;20044;-67
2022/12/31 20:51:56;;;;;;;270.88;118.00;;;;;;;21.73;38.83;101081.78;21045628;28;20445;-66
2022/12/31 21:01:57;;;;;;;265.52;111.32;;;;;;;21.68;38.68;101061.50;21045554;28;20105;-64
2022/12/31 21:22:19;;;;;;;194.18;88.20;;;;;;;21.74;39.31;101094.59;21055710;28;20050;-63
2022/12/31 21:32:20;;;;;;;190.95;85.68;;;;;;;21.55;39.33;101030.31;21052362;28;20600;-63
2022/12/31 21:42:21;;;;;;;196.20;82.43;;;;;;;21.73;39.63;101059.50;21052773;28;20483;-64
2022/12/31 21:52:26;;;;;;;185.02;81.05;;;;;;;21.75;39.74;101046.13;21062430;28;20036;-65
2022/12/31 22:12:47;;;;;;;170.00;73.53;;;;;;;21.76;39.97;101050.59;21065011;28;20048;-67
2022/12/31 22:22:48;;;;;;;159.05;71.82;;;;;;;21.75;39.89;101023.84;21060668;28;20063;-67
2022/12/31 22:32:50;;;;;;;145.45;65.97;;;;;;;21.76;39.47;101011.59;21059695;28;20142;-65
2022/12/31 22:42:54;;;;;;;145.07;66.95;;;;;;;21.76;39.40;101025.53;21063745;28;20044;-65
2022/12/31 22:52:55;;;;;;;143.60;62.03;;;;;;;21.75;39.77;101007.13;21062964;28;20093;-64
2022/12/31 23:02:59;;;;;;;117.38;54.83;;;;;;;21.66;40.03;100992.13;21060493;28;20036;-67
2022/12/31 23:23:25;;;;;;;125.88;55.28;;;;;;;21.79;39.05;101012.97;21060785;28;20036;-64
2022/12/31 23:33:26;;;;;;;116.93;51.13;;;;;;;21.79;39.58;101022.16;21048532;28;20071;-62
2022/12/31 23:43:27;;;;;;;96.60;40.55;;;;;;;21.85;44.40;100999.84;21064657;28;20036;-63
2022/12/31 23:53:31;;;;;;;82.13;38.35;;;;;;;21.80;43.86;100982.03;21055485;28;20040;-62
